sensor_id;sensor_type;location;lat;lon;timestamp;temperature;humidity
18898;DHT22;9581;49.484;8.556;2023-03-24T00:00:30;14.10;99.90
18898;DHT22;9581;49.484;8.556;2023-03-24T00:02:59;14.10;99.90
18898;DHT22;9581;49.484;8.556;2023-03-24T00:05:28;14.10;99.90
18898;DHT22;9581;49.484;8.556;2023-03-24T00:07:55;14.10;99.90
18898;DHT22;9581;49.484;8.556;2023-03-24T00:10:24;14.10;99.90
18898;DHT22;9581;49.484;8.556;2023-03-24T00:12:55;14.10;99.90
18898;DHT22;9581;49.484;8.556;2023-03-24T00:15:23;14.10;99.90
18898;DHT22;9581;49.484;8.556;2023-03-24T00:17:51;14.00;99.90
18898;DHT22;9581;49.484;8.556;2023-03-24T00:20:21;14.00;99.90
18898;DHT22;9581;49.484;8.556;2023-03-24T00:22:52;14.00;99.90
18898;DHT22;9581;49.484;8.556;2023-03-24T00:25:23;14.00;99.90
18898;DHT22;9581;49.484;8.556;2023-03-24T00:27:52;14.00;99.90
18898;DHT22;9581;49.484;8.556;2023-03-24T00:30:20;14.00;99.90
18898;DHT22;9581;49.484;8.556;2023-03-24T00:32:47;14.00;99.90
18898;DHT22;9581;49.484;8.556;2023-03-24T00:35:15;14.00;99.90
18898;DHT22;9581;49.484;8.556;2023-03-24T00:37:43;14.00;99.90
18898;DHT22;9581;49.484;8.556;2023-03-24T00:40:12;14.00;99.90
18898;DHT22;9581;49.484;8.556;2023-03-24T00:42:41;14.00;99.90
18898;DHT22;9581;49.484;8.556;2023-03-24T00:45:11;14.00;99.90
18898;DHT22;9581;49.484;8.556;2023-03-24T00:47:38;14.00;99.90
18898;DHT22;9581;49.484;8.556;2023-03-24T00:50:07;13.90;99.90
18898;DHT22;9581;49.484;8.556;2023-03-24T00:52:34;13.80;99.90
18898;DHT22;9581;49.484;8.556;2023-03-24T00:55:03;13.80;99.90
18898;DHT22;9581;49.484;8.556;2023-03-24T00:57:32;13.80;99.90
18898;DHT22;9581;49.484;8.556;2023-03-24T01:00:01;13.80;99.90
18898;DHT22;9581;49.484;8.556;2023-03-24T01:02:35;13.80;99.90
18898;DHT22;9581;49.484;8.556;2023-03-24T01:05:02;13.80;99.90
18898;DHT22;9581;49.484;8.556;2023-03-24T01:07:29;13.80;99.90
18898;DHT22;9581;49.484;8.556;2023-03-24T01:09:56;13.80;99.90
18898;DHT22;9581;49.484;8.556;2023-03-24T01:12:24;13.80;99.90
18898;DHT22;9581;49.484;8.556;2023-03-24T01:14:53;13.80;99.90
18898;DHT22;9581;49.484;8.556;2023-03-24T01:17:20;13.80;99.90
18898;DHT22;9581;49.484;8.556;2023-03-24T01:19:50;13.80;99.90
18898;DHT22;9581;49.484;8.556;2023-03-24T01:22:17;13.80;99.90
18898;DHT22;9581;49.484;8.556;2023-03-24T01:24:45;13.80;99.90
18898;DHT22;9581;49.484;8.556;2023-03-24T01:27:12;13.80;99.90
18898;DHT22;9581;49.484;8.556;2023-03-24T01:29:39;13.80;99.90
18898;DHT22;9581;49.484;8.556;2023-03-24T01:32:08;13.70;99.90
18898;DHT22;9581;49.484;8.556;2023-03-24T01:34:35;13.70;99.90
18898;DHT22;9581;49.484;8.556;2023-03-24T01:37:02;13.70;99.90
18898;DHT22;9581;49.484;8.556;2023-03-24T01:39:29;13.70;99.90
18898;DHT22;9581;49.484;8.556;2023-03-24T01:41:57;13.80;99.90
18898;DHT22;9581;49.484;8.556;2023-03-24T01:44:27;13.70;99.90
18898;DHT22;9581;49.484;8.556;2023-03-24T01:46:54;13.80;99.90
18898;DHT22;9581;49.484;8.556;2023-03-24T01:49:25;13.90;99.90
18898;DHT22;9581;49.484;8.556;2023-03-24T01:51:55;13.90;99.90
18898;DHT22;9581;49.484;8.556;2023-03-24T01:54:26;13.90;99.90
18898;DHT22;9581;49.484;8.556;2023-03-24T01:56:56;13.90;99.90
18898;DHT22;9581;49.484;8.556;2023-03-24T01:59:27;13.90;99.90
18898;DHT22;9581;49.484;8.556;2023-03-24T02:01:55;14.00;99.90
18898;DHT22;9581;49.484;8.556;2023-03-24T02:04:29;13.90;99.90
18898;DHT22;9581;49.484;8.556;2023-03-24T02:07:02;14.00;99.90
18898;DHT22;9581;49.484;8.556;2023-03-24T02:09:30;13.90;99.90
18898;DHT22;9581;49.484;8.556;2023-03-24T02:11:58;13.90;99.90
18898;DHT22;9581;49.484;8.556;2023-03-24T02:14:27;13.90;99.90
18898;DHT22;9581;49.484;8.556;2023-03-24T02:17:09;14.00;99.90
18898;DHT22;9581;49.484;8.556;2023-03-24T02:23:14;14.10;99.90
18898;DHT22;9581;49.484;8.556;2023-03-24T02:28:50;14.20;99.90
18898;DHT22;9581;49.484;8.556;2023-03-24T02:31:38;14.20;99.90
18898;DHT22;9581;49.484;8.556;2023-03-24T02:34:29;14.20;99.90
18898;DHT22;9581;49.484;8.556;2023-03-24T02:37:23;14.20;99.90
18898;DHT22;9581;49.484;8.556;2023-03-24T02:40:19;14.30;99.90
18898;DHT22;9581;49.484;8.556;2023-03-24T02:43:02;14.40;99.90
18898;DHT22;9581;49.484;8.556;2023-03-24T02:45:35;14.40;99.90
18898;DHT22;9581;49.484;8.556;2023-03-24T02:48:14;14.40;99.90
18898;DHT22;9581;49.484;8.556;2023-03-24T02:50:49;14.40;99.90
18898;DHT22;9581;49.484;8.556;2023-03-24T02:53:21;14.40;99.90
18898;DHT22;9581;49.484;8.556;2023-03-24T02:55:54;14.50;99.90
18898;DHT22;9581;49.484;8.556;2023-03-24T02:58:27;14.50;99.90
18898;DHT22;9581;49.484;8.556;2023-03-24T03:01:01;14.50;99.90
18898;DHT22;9581;49.484;8.556;2023-03-24T03:03:35;14.50;99.90
18898;DHT22;9581;49.484;8.556;2023-03-24T03:06:07;14.50;99.90
18898;DHT22;9581;49.484;8.556;2023-03-24T03:08:38;14.50;99.90
18898;DHT22;9581;49.484;8.556;2023-03-24T03:11:12;14.50;99.90
18898;DHT22;9581;49.484;8.556;2023-03-24T03:13:42;14.50;99.90
18898;DHT22;9581;49.484;8.556;2023-03-24T03:16:13;14.50;99.90
18898;DHT22;9581;49.484;8.556;2023-03-24T03:18:45;14.50;99.90
18898;DHT22;9581;49.484;8.556;2023-03-24T03:21:16;14.60;99.90
18898;DHT22;9581;49.484;8.556;2023-03-24T03:23:50;14.60;99.90
18898;DHT22;9581;49.484;8.556;2023-03-24T03:26:19;14.50;99.90
18898;DHT22;9581;49.484;8.556;2023-03-24T03:28:51;14.50;99.90
18898;DHT22;9581;49.484;8.556;2023-03-24T03:31:26;14.50;99.90
18898;DHT22;9581;49.484;8.556;2023-03-24T03:33:59;14.50;99.90
18898;DHT22;9581;49.484;8.556;2023-03-24T03:36:32;14.50;99.90
18898;DHT22;9581;49.484;8.556;2023-03-24T03:39:04;14.60;99.90
18898;DHT22;9581;49.484;8.556;2023-03-24T03:41:34;14.70;99.90
18898;DHT22;9581;49.484;8.556;2023-03-24T03:44:01;14.70;99.90
18898;DHT22;9581;49.484;8.556;2023-03-24T03:46:28;14.70;99.90
18898;DHT22;9581;49.484;8.556;2023-03-24T03:48:55;14.70;99.90
18898;DHT22;9581;49.484;8.556;2023-03-24T03:51:22;14.70;99.90
18898;DHT22;9581;49.484;8.556;2023-03-24T03:53:51;14.70;99.90
18898;DHT22;9581;49.484;8.556;2023-03-24T03:56:22;14.70;99.90
18898;DHT22;9581;49.484;8.556;2023-03-24T03:58:50;14.80;99.90
18898;DHT22;9581;49.484;8.556;2023-03-24T04:01:20;14.80;99.90
18898;DHT22;9581;49.484;8.556;2023-03-24T04:04:02;14.80;99.90
18898;DHT22;9581;49.484;8.556;2023-03-24T04:06:36;14.80;99.90
18898;DHT22;9581;49.484;8.556;2023-03-24T04:09:14;14.80;99.90
18898;DHT22;9581;49.484;8.556;2023-03-24T04:11:55;14.90;99.90
18898;DHT22;9581;49.484;8.556;2023-03-24T04:14:40;14.90;99.90
18898;DHT22;9581;49.484;8.556;2023-03-24T04:17:20;14.90;99.90
18898;DHT22;9581;49.484;8.556;2023-03-24T04:20:00;14.80;99.90
18898;DHT22;9581;49.484;8.556;2023-03-24T04:22:39;14.80;99.90
18898;DHT22;9581;49.484;8.556;2023-03-24T04:25:15;14.80;99.90
18898;DHT22;9581;49.484;8.556;2023-03-24T04:27:48;14.70;99.90
18898;DHT22;9581;49.484;8.556;2023-03-24T04:30:27;14.70;99.90
18898;DHT22;9581;49.484;8.556;2023-03-24T04:32:58;14.70;99.90
18898;DHT22;9581;49.484;8.556;2023-03-24T04:35:30;14.60;99.90
18898;DHT22;9581;49.484;8.556;2023-03-24T04:38:01;14.70;99.90
18898;DHT22;9581;49.484;8.556;2023-03-24T04:40:31;14.60;99.90
18898;DHT22;9581;49.484;8.556;2023-03-24T04:43:00;14.60;99.90
18898;DHT22;9581;49.484;8.556;2023-03-24T04:45:31;14.70;99.90
18898;DHT22;9581;49.484;8.556;2023-03-24T04:48:02;14.70;99.90
18898;DHT22;9581;49.484;8.556;2023-03-24T04:50:31;14.80;99.90
18898;DHT22;9581;49.484;8.556;2023-03-24T04:53:01;14.70;99.90
18898;DHT22;9581;49.484;8.556;2023-03-24T04:55:43;14.70;99.90
18898;DHT22;9581;49.484;8.556;2023-03-24T04:58:12;14.70;99.90
18898;DHT22;9581;49.484;8.556;2023-03-24T05:00:41;14.70;99.90
18898;DHT22;9581;49.484;8.556;2023-03-24T05:03:09;14.60;99.90
18898;DHT22;9581;49.484;8.556;2023-03-24T05:05:38;14.50;99.90
18898;DHT22;9581;49.484;8.556;2023-03-24T05:08:05;14.40;99.90
18898;DHT22;9581;49.484;8.556;2023-03-24T05:10:32;14.40;99.90
18898;DHT22;9581;49.484;8.556;2023-03-24T05:12:59;14.30;99.90
18898;DHT22;9581;49.484;8.556;2023-03-24T05:15:27;14.20;99.90
18898;DHT22;9581;49.484;8.556;2023-03-24T05:17:55;14.20;99.90
18898;DHT22;9581;49.484;8.556;2023-03-24T05:20:22;14.20;99.90
18898;DHT22;9581;49.484;8.556;2023-03-24T05:22:49;14.10;99.90
18898;DHT22;9581;49.484;8.556;2023-03-24T05:25:17;14.00;99.90
18898;DHT22;9581;49.484;8.556;2023-03-24T05:27:44;14.00;99.90
18898;DHT22;9581;49.484;8.556;2023-03-24T05:30:12;13.90;99.90
18898;DHT22;9581;49.484;8.556;2023-03-24T05:32:39;13.90;99.90
18898;DHT22;9581;49.484;8.556;2023-03-24T05:35:08;13.90;99.90
18898;DHT22;9581;49.484;8.556;2023-03-24T05:37:35;13.80;99.90
18898;DHT22;9581;49.484;8.556;2023-03-24T05:40:01;13.90;99.90
18898;DHT22;9581;49.484;8.556;2023-03-24T05:42:28;13.80;99.90
18898;DHT22;9581;49.484;8.556;2023-03-24T05:44:55;14.00;99.90
18898;DHT22;9581;49.484;8.556;2023-03-24T05:47:22;14.00;99.90
18898;DHT22;9581;49.484;8.556;2023-03-24T05:49:48;13.90;99.90
18898;DHT22;9581;49.484;8.556;2023-03-24T05:52:17;13.90;99.90
18898;DHT22;9581;49.484;8.556;2023-03-24T05:54:45;13.90;99.90
18898;DHT22;9581;49.484;8.556;2023-03-24T05:57:15;13.90;99.90
18898;DHT22;9581;49.484;8.556;2023-03-24T05:59:41;13.80;99.90
18898;DHT22;9581;49.484;8.556;2023-03-24T06:02:08;13.90;99.90
18898;DHT22;9581;49.484;8.556;2023-03-24T06:04:35;13.80;99.90
18898;DHT22;9581;49.484;8.556;2023-03-24T06:07:02;13.80;99.90
18898;DHT22;9581;49.484;8.556;2023-03-24T06:09:31;13.80;99.90
18898;DHT22;9581;49.484;8.556;2023-03-24T06:12:00;13.80;99.90
18898;DHT22;9581;49.484;8.556;2023-03-24T06:14:27;13.70;99.90
18898;DHT22;9581;49.484;8.556;2023-03-24T06:16:55;13.70;99.90
18898;DHT22;9581;49.484;8.556;2023-03-24T06:19:23;13.80;99.90
18898;DHT22;9581;49.484;8.556;2023-03-24T06:21:51;13.80;99.90
18898;DHT22;9581;49.484;8.556;2023-03-24T06:24:18;13.70;99.90
18898;DHT22;9581;49.484;8.556;2023-03-24T06:26:47;13.70;99.90
18898;DHT22;9581;49.484;8.556;2023-03-24T06:29:14;13.70;99.90
18898;DHT22;9581;49.484;8.556;2023-03-24T06:31:42;13.70;99.90
18898;DHT22;9581;49.484;8.556;2023-03-24T06:34:09;13.80;99.90
18898;DHT22;9581;49.484;8.556;2023-03-24T06:36:36;13.80;99.90
18898;DHT22;9581;49.484;8.556;2023-03-24T06:39:03;13.80;99.90
18898;DHT22;9581;49.484;8.556;2023-03-24T06:41:31;13.70;99.90
18898;DHT22;9581;49.484;8.556;2023-03-24T06:43:59;13.60;99.90
18898;DHT22;9581;49.484;8.556;2023-03-24T06:46:26;13.70;99.90
18898;DHT22;9581;49.484;8.556;2023-03-24T06:48:53;13.70;99.90
18898;DHT22;9581;49.484;8.556;2023-03-24T06:51:19;13.80;99.90
18898;DHT22;9581;49.484;8.556;2023-03-24T06:53:46;13.80;99.90
18898;DHT22;9581;49.484;8.556;2023-03-24T06:56:13;13.80;99.90
18898;DHT22;9581;49.484;8.556;2023-03-24T06:58:41;13.80;99.90
18898;DHT22;9581;49.484;8.556;2023-03-24T07:01:10;13.80;99.90
18898;DHT22;9581;49.484;8.556;2023-03-24T07:03:37;13.80;99.90
18898;DHT22;9581;49.484;8.556;2023-03-24T07:06:06;13.80;99.90
18898;DHT22;9581;49.484;8.556;2023-03-24T07:08:34;13.80;99.90
18898;DHT22;9581;49.484;8.556;2023-03-24T07:11:01;13.90;99.90
18898;DHT22;9581;49.484;8.556;2023-03-24T07:13:28;13.90;99.90
18898;DHT22;9581;49.484;8.556;2023-03-24T07:15:55;14.00;99.90
18898;DHT22;9581;49.484;8.556;2023-03-24T07:18:23;13.90;99.90
18898;DHT22;9581;49.484;8.556;2023-03-24T07:20:50;13.80;99.90
18898;DHT22;9581;49.484;8.556;2023-03-24T07:23:17;14.00;99.90
18898;DHT22;9581;49.484;8.556;2023-03-24T07:25:44;14.00;99.90
18898;DHT22;9581;49.484;8.556;2023-03-24T07:28:11;14.00;99.90
18898;DHT22;9581;49.484;8.556;2023-03-24T07:30:38;14.10;99.90
18898;DHT22;9581;49.484;8.556;2023-03-24T07:33:06;14.10;99.90
18898;DHT22;9581;49.484;8.556;2023-03-24T07:35:35;14.10;99.90
18898;DHT22;9581;49.484;8.556;2023-03-24T07:38:02;14.10;99.90
18898;DHT22;9581;49.484;8.556;2023-03-24T07:40:29;14.00;99.90
18898;DHT22;9581;49.484;8.556;2023-03-24T07:42:59;14.10;99.90
18898;DHT22;9581;49.484;8.556;2023-03-24T07:45:26;14.10;99.90
18898;DHT22;9581;49.484;8.556;2023-03-24T07:47:53;14.10;99.90
18898;DHT22;9581;49.484;8.556;2023-03-24T07:50:21;14.10;99.90
18898;DHT22;9581;49.484;8.556;2023-03-24T07:52:49;14.10;99.90
18898;DHT22;9581;49.484;8.556;2023-03-24T07:55:16;14.20;99.90
18898;DHT22;9581;49.484;8.556;2023-03-24T07:57:45;14.10;99.90
18898;DHT22;9581;49.484;8.556;2023-03-24T08:00:13;14.10;99.90
18898;DHT22;9581;49.484;8.556;2023-03-24T08:02:43;14.10;99.90
18898;DHT22;9581;49.484;8.556;2023-03-24T08:05:11;14.10;99.90
18898;DHT22;9581;49.484;8.556;2023-03-24T08:07:39;14.10;99.90
18898;DHT22;9581;49.484;8.556;2023-03-24T08:10:09;14.10;99.90
18898;DHT22;9581;49.484;8.556;2023-03-24T08:12:36;14.20;99.90
18898;DHT22;9581;49.484;8.556;2023-03-24T08:15:05;14.20;99.90
18898;DHT22;9581;49.484;8.556;2023-03-24T08:17:32;14.20;99.90
18898;DHT22;9581;49.484;8.556;2023-03-24T08:19:59;14.20;99.90
18898;DHT22;9581;49.484;8.556;2023-03-24T08:22:29;14.20;99.90
18898;DHT22;9581;49.484;8.556;2023-03-24T08:24:56;14.20;99.90
18898;DHT22;9581;49.484;8.556;2023-03-24T08:27:24;14.20;99.90
18898;DHT22;9581;49.484;8.556;2023-03-24T08:29:51;14.20;99.90
18898;DHT22;9581;49.484;8.556;2023-03-24T08:32:18;14.20;99.90
18898;DHT22;9581;49.484;8.556;2023-03-24T08:34:45;14.10;99.90
18898;DHT22;9581;49.484;8.556;2023-03-24T08:37:11;14.10;99.90
18898;DHT22;9581;49.484;8.556;2023-03-24T08:39:38;14.10;99.90
18898;DHT22;9581;49.484;8.556;2023-03-24T08:42:05;14.00;99.90
18898;DHT22;9581;49.484;8.556;2023-03-24T08:44:33;14.10;99.90
18898;DHT22;9581;49.484;8.556;2023-03-24T08:47:01;14.10;99.90
18898;DHT22;9581;49.484;8.556;2023-03-24T08:49:28;14.00;99.90
18898;DHT22;9581;49.484;8.556;2023-03-24T08:51:55;14.10;99.90
18898;DHT22;9581;49.484;8.556;2023-03-24T08:54:21;14.20;99.90
18898;DHT22;9581;49.484;8.556;2023-03-24T08:56:49;14.10;99.90
18898;DHT22;9581;49.484;8.556;2023-03-24T08:59:16;14.30;99.90
18898;DHT22;9581;49.484;8.556;2023-03-24T09:01:44;14.20;99.90
18898;DHT22;9581;49.484;8.556;2023-03-24T09:04:11;14.10;99.90
18898;DHT22;9581;49.484;8.556;2023-03-24T09:06:38;14.10;99.90
18898;DHT22;9581;49.484;8.556;2023-03-24T09:09:04;14.20;99.90
18898;DHT22;9581;49.484;8.556;2023-03-24T09:11:32;14.30;99.90
18898;DHT22;9581;49.484;8.556;2023-03-24T09:13:59;14.20;99.90
18898;DHT22;9581;49.484;8.556;2023-03-24T09:16:26;14.20;99.90
18898;DHT22;9581;49.484;8.556;2023-03-24T09:18:54;14.20;99.90
18898;DHT22;9581;49.484;8.556;2023-03-24T09:21:21;14.20;99.90
18898;DHT22;9581;49.484;8.556;2023-03-24T09:23:47;14.20;99.90
18898;DHT22;9581;49.484;8.556;2023-03-24T09:26:14;14.20;99.90
18898;DHT22;9581;49.484;8.556;2023-03-24T09:28:41;14.20;99.90
18898;DHT22;9581;49.484;8.556;2023-03-24T09:31:09;14.30;99.90
18898;DHT22;9581;49.484;8.556;2023-03-24T09:33:36;14.30;99.90
18898;DHT22;9581;49.484;8.556;2023-03-24T09:36:05;14.20;99.90
18898;DHT22;9581;49.484;8.556;2023-03-24T09:38:32;14.20;99.90
18898;DHT22;9581;49.484;8.556;2023-03-24T09:41:00;14.30;99.90
18898;DHT22;9581;49.484;8.556;2023-03-24T09:43:33;14.40;99.90
18898;DHT22;9581;49.484;8.556;2023-03-24T09:46:03;14.30;99.90
18898;DHT22;9581;49.484;8.556;2023-03-24T09:48:35;14.20;99.90
18898;DHT22;9581;49.484;8.556;2023-03-24T09:51:09;14.30;99.90
18898;DHT22;9581;49.484;8.556;2023-03-24T09:53:43;14.30;99.90
18898;DHT22;9581;49.484;8.556;2023-03-24T09:56:13;14.20;99.90
18898;DHT22;9581;49.484;8.556;2023-03-24T09:58:42;14.30;99.90
18898;DHT22;9581;49.484;8.556;2023-03-24T10:01:12;14.20;99.90
18898;DHT22;9581;49.484;8.556;2023-03-24T10:03:41;14.20;99.90
18898;DHT22;9581;49.484;8.556;2023-03-24T10:06:13;14.20;99.90
18898;DHT22;9581;49.484;8.556;2023-03-24T10:08:45;14.20;99.90
18898;DHT22;9581;49.484;8.556;2023-03-24T10:11:20;14.20;99.90
18898;DHT22;9581;49.484;8.556;2023-03-24T10:14:04;14.20;99.90
18898;DHT22;9581;49.484;8.556;2023-03-24T10:16:37;14.20;99.90
18898;DHT22;9581;49.484;8.556;2023-03-24T10:19:17;14.10;99.90
18898;DHT22;9581;49.484;8.556;2023-03-24T10:21:54;14.00;99.90
18898;DHT22;9581;49.484;8.556;2023-03-24T10:24:25;14.00;99.90
18898;DHT22;9581;49.484;8.556;2023-03-24T10:27:01;14.10;99.90
18898;DHT22;9581;49.484;8.556;2023-03-24T10:29:30;14.10;99.90
18898;DHT22;9581;49.484;8.556;2023-03-24T10:32:01;14.10;99.90
18898;DHT22;9581;49.484;8.556;2023-03-24T10:34:30;14.10;99.90
18898;DHT22;9581;49.484;8.556;2023-03-24T10:37:01;14.10;99.90
18898;DHT22;9581;49.484;8.556;2023-03-24T10:39:29;14.00;99.90
18898;DHT22;9581;49.484;8.556;2023-03-24T10:41:57;14.00;99.90
18898;DHT22;9581;49.484;8.556;2023-03-24T10:44:25;14.10;99.90
18898;DHT22;9581;49.484;8.556;2023-03-24T10:46:55;14.10;99.90
18898;DHT22;9581;49.484;8.556;2023-03-24T10:49:23;14.00;99.90
18898;DHT22;9581;49.484;8.556;2023-03-24T10:51:52;14.00;99.90
18898;DHT22;9581;49.484;8.556;2023-03-24T10:54:24;13.90;99.90
18898;DHT22;9581;49.484;8.556;2023-03-24T10:57:00;14.00;99.90
18898;DHT22;9581;49.484;8.556;2023-03-24T10:59:30;14.00;99.90
18898;DHT22;9581;49.484;8.556;2023-03-24T11:01:59;14.10;99.90
18898;DHT22;9581;49.484;8.556;2023-03-24T11:04:26;14.20;99.90
18898;DHT22;9581;49.484;8.556;2023-03-24T11:07:00;14.00;99.90
18898;DHT22;9581;49.484;8.556;2023-03-24T11:09:38;14.10;99.90
18898;DHT22;9581;49.484;8.556;2023-03-24T11:12:19;14.00;99.90
18898;DHT22;9581;49.484;8.556;2023-03-24T11:14:46;13.60;99.90
18898;DHT22;9581;49.484;8.556;2023-03-24T11:17:14;13.60;99.90
18898;DHT22;9581;49.484;8.556;2023-03-24T11:19:50;13.50;99.90
18898;DHT22;9581;49.484;8.556;2023-03-24T11:22:18;13.40;99.90
18898;DHT22;9581;49.484;8.556;2023-03-24T11:24:48;13.40;99.90
18898;DHT22;9581;49.484;8.556;2023-03-24T11:27:16;13.30;99.90
18898;DHT22;9581;49.484;8.556;2023-03-24T11:29:47;13.40;99.90
18898;DHT22;9581;49.484;8.556;2023-03-24T11:32:20;13.60;99.90
18898;DHT22;9581;49.484;8.556;2023-03-24T11:34:57;13.60;99.90
18898;DHT22;9581;49.484;8.556;2023-03-24T11:37:27;13.70;99.90
18898;DHT22;9581;49.484;8.556;2023-03-24T11:40:16;13.70;99.90
18898;DHT22;9581;49.484;8.556;2023-03-24T11:42:45;13.70;99.90
18898;DHT22;9581;49.484;8.556;2023-03-24T11:45:21;13.70;99.90
18898;DHT22;9581;49.484;8.556;2023-03-24T11:47:50;13.70;99.90
18898;DHT22;9581;49.484;8.556;2023-03-24T11:50:20;13.80;99.90
18898;DHT22;9581;49.484;8.556;2023-03-24T11:52:51;13.70;99.90
18898;DHT22;9581;49.484;8.556;2023-03-24T11:55:27;13.60;99.90
18898;DHT22;9581;49.484;8.556;2023-03-24T11:57:58;13.70;99.90
18898;DHT22;9581;49.484;8.556;2023-03-24T12:00:32;13.90;99.90
18898;DHT22;9581;49.484;8.556;2023-03-24T12:03:30;13.70;99.90
18898;DHT22;9581;49.484;8.556;2023-03-24T12:06:05;13.90;99.90
18898;DHT22;9581;49.484;8.556;2023-03-24T12:08:45;14.00;99.90
18898;DHT22;9581;49.484;8.556;2023-03-24T12:11:23;14.00;99.90
18898;DHT22;9581;49.484;8.556;2023-03-24T12:13:56;14.20;99.90
18898;DHT22;9581;49.484;8.556;2023-03-24T12:16:39;14.20;99.90
18898;DHT22;9581;49.484;8.556;2023-03-24T12:19:49;14.00;99.90
18898;DHT22;9581;49.484;8.556;2023-03-24T12:22:30;14.20;99.90
18898;DHT22;9581;49.484;8.556;2023-03-24T12:25:24;14.10;99.90
18898;DHT22;9581;49.484;8.556;2023-03-24T12:28:03;14.20;99.90
18898;DHT22;9581;49.484;8.556;2023-03-24T12:30:40;14.40;99.90
18898;DHT22;9581;49.484;8.556;2023-03-24T12:33:23;14.40;99.90
18898;DHT22;9581;49.484;8.556;2023-03-24T12:36:19;14.70;99.90
18898;DHT22;9581;49.484;8.556;2023-03-24T12:39:07;15.20;99.90
18898;DHT22;9581;49.484;8.556;2023-03-24T12:41:44;15.80;99.90
18898;DHT22;9581;49.484;8.556;2023-03-24T12:44:30;15.70;99.90
18898;DHT22;9581;49.484;8.556;2023-03-24T12:47:08;15.80;99.90
18898;DHT22;9581;49.484;8.556;2023-03-24T12:49:53;15.90;99.90
18898;DHT22;9581;49.484;8.556;2023-03-24T12:52:32;16.20;99.90
18898;DHT22;9581;49.484;8.556;2023-03-24T12:55:06;16.30;99.90
18898;DHT22;9581;49.484;8.556;2023-03-24T12:57:37;16.50;99.90
18898;DHT22;9581;49.484;8.556;2023-03-24T13:00:12;16.40;99.90
18898;DHT22;9581;49.484;8.556;2023-03-24T13:02:45;16.80;99.90
18898;DHT22;9581;49.484;8.556;2023-03-24T13:05:17;17.00;99.90
18898;DHT22;9581;49.484;8.556;2023-03-24T13:07:48;17.20;99.90
18898;DHT22;9581;49.484;8.556;2023-03-24T13:10:21;16.60;99.90
18898;DHT22;9581;49.484;8.556;2023-03-24T13:12:53;16.50;99.90
18898;DHT22;9581;49.484;8.556;2023-03-24T13:15:24;16.20;99.90
18898;DHT22;9581;49.484;8.556;2023-03-24T13:18:13;16.40;99.90
18898;DHT22;9581;49.484;8.556;2023-03-24T13:20:45;16.50;99.90
18898;DHT22;9581;49.484;8.556;2023-03-24T13:23:35;16.40;99.90
18898;DHT22;9581;49.484;8.556;2023-03-24T13:26:09;16.40;99.90
18898;DHT22;9581;49.484;8.556;2023-03-24T13:28:49;16.40;99.90
18898;DHT22;9581;49.484;8.556;2023-03-24T13:31:23;16.40;99.90
18898;DHT22;9581;49.484;8.556;2023-03-24T13:33:53;16.40;99.90
18898;DHT22;9581;49.484;8.556;2023-03-24T13:36:33;16.50;99.90
18898;DHT22;9581;49.484;8.556;2023-03-24T13:39:06;16.50;99.90
18898;DHT22;9581;49.484;8.556;2023-03-24T13:41:36;16.40;99.90
18898;DHT22;9581;49.484;8.556;2023-03-24T13:44:07;16.40;99.90
18898;DHT22;9581;49.484;8.556;2023-03-24T13:46:37;16.10;99.90
18898;DHT22;9581;49.484;8.556;2023-03-24T13:49:11;16.20;99.90
18898;DHT22;9581;49.484;8.556;2023-03-24T13:51:42;16.40;99.90
18898;DHT22;9581;49.484;8.556;2023-03-24T13:54:13;16.20;99.90
18898;DHT22;9581;49.484;8.556;2023-03-24T13:56:46;16.30;99.90
18898;DHT22;9581;49.484;8.556;2023-03-24T13:59:27;16.70;99.90
18898;DHT22;9581;49.484;8.556;2023-03-24T14:02:41;17.00;99.90
18898;DHT22;9581;49.484;8.556;2023-03-24T14:05:12;18.30;99.90
18898;DHT22;9581;49.484;8.556;2023-03-24T14:08:10;20.30;99.90
18898;DHT22;9581;49.484;8.556;2023-03-24T14:10:41;20.30;99.90
18898;DHT22;9581;49.484;8.556;2023-03-24T14:13:34;21.30;99.90
18898;DHT22;9581;49.484;8.556;2023-03-24T14:16:25;22.30;99.90
18898;DHT22;9581;49.484;8.556;2023-03-24T14:19:07;23.70;99.90
18898;DHT22;9581;49.484;8.556;2023-03-24T14:21:38;24.80;99.90
18898;DHT22;9581;49.484;8.556;2023-03-24T14:24:15;24.70;97.60
18898;DHT22;9581;49.484;8.556;2023-03-24T14:26:42;23.30;97.00
18898;DHT22;9581;49.484;8.556;2023-03-24T14:29:35;22.30;95.30
18898;DHT22;9581;49.484;8.556;2023-03-24T14:32:03;23.70;95.30
18898;DHT22;9581;49.484;8.556;2023-03-24T14:34:33;24.20;93.90
18898;DHT22;9581;49.484;8.556;2023-03-24T14:37:03;23.40;92.90
18898;DHT22;9581;49.484;8.556;2023-03-24T14:39:35;24.50;92.40
18898;DHT22;9581;49.484;8.556;2023-03-24T14:42:26;22.10;93.00
18898;DHT22;9581;49.484;8.556;2023-03-24T14:44:55;23.60;91.70
18898;DHT22;9581;49.484;8.556;2023-03-24T14:47:24;21.10;93.80
18898;DHT22;9581;49.484;8.556;2023-03-24T14:49:54;19.00;95.90
18898;DHT22;9581;49.484;8.556;2023-03-24T14:52:23;19.00;96.70
18898;DHT22;9581;49.484;8.556;2023-03-24T14:54:53;18.40;97.00
18898;DHT22;9581;49.484;8.556;2023-03-24T14:57:22;18.40;96.10
18898;DHT22;9581;49.484;8.556;2023-03-24T14:59:56;18.20;97.30
18898;DHT22;9581;49.484;8.556;2023-03-24T15:02:34;18.50;98.00
18898;DHT22;9581;49.484;8.556;2023-03-24T15:05:26;18.30;98.30
18898;DHT22;9581;49.484;8.556;2023-03-24T15:08:01;18.20;98.80
18898;DHT22;9581;49.484;8.556;2023-03-24T15:10:32;18.00;99.30
18898;DHT22;9581;49.484;8.556;2023-03-24T15:13:01;18.00;99.60
18898;DHT22;9581;49.484;8.556;2023-03-24T15:15:29;17.70;99.90
18898;DHT22;9581;49.484;8.556;2023-03-24T15:17:56;17.40;99.90
18898;DHT22;9581;49.484;8.556;2023-03-24T15:20:26;17.30;99.90
18898;DHT22;9581;49.484;8.556;2023-03-24T15:22:54;17.40;99.90
18898;DHT22;9581;49.484;8.556;2023-03-24T15:25:24;17.50;99.90
18898;DHT22;9581;49.484;8.556;2023-03-24T15:27:52;17.30;99.90
18898;DHT22;9581;49.484;8.556;2023-03-24T15:30:20;17.20;99.90
18898;DHT22;9581;49.484;8.556;2023-03-24T15:32:47;21.50;99.10
18898;DHT22;9581;49.484;8.556;2023-03-24T15:35:16;18.70;99.10
18898;DHT22;9581;49.484;8.556;2023-03-24T15:37:49;20.70;98.20
18898;DHT22;9581;49.484;8.556;2023-03-24T15:40:35;19.10;98.20
18898;DHT22;9581;49.484;8.556;2023-03-24T15:43:04;18.50;99.70
18898;DHT22;9581;49.484;8.556;2023-03-24T15:45:35;18.40;99.90
18898;DHT22;9581;49.484;8.556;2023-03-24T15:48:04;18.30;99.90
18898;DHT22;9581;49.484;8.556;2023-03-24T15:50:33;17.90;99.10
18898;DHT22;9581;49.484;8.556;2023-03-24T15:53:05;18.10;98.90
18898;DHT22;9581;49.484;8.556;2023-03-24T15:55:33;17.90;99.40
18898;DHT22;9581;49.484;8.556;2023-03-24T15:58:17;17.80;99.80
18898;DHT22;9581;49.484;8.556;2023-03-24T16:00:46;17.60;96.40
18898;DHT22;9581;49.484;8.556;2023-03-24T16:03:13;17.50;96.40
18898;DHT22;9581;49.484;8.556;2023-03-24T16:05:45;18.00;98.70
18898;DHT22;9581;49.484;8.556;2023-03-24T16:08:25;18.20;99.00
18898;DHT22;9581;49.484;8.556;2023-03-24T16:10:56;18.10;97.50
18898;DHT22;9581;49.484;8.556;2023-03-24T16:13:23;17.80;97.70
18898;DHT22;9581;49.484;8.556;2023-03-24T16:15:55;17.50;96.60
18898;DHT22;9581;49.484;8.556;2023-03-24T16:18:26;17.60;99.90